createdAt,value
2017-04-24T00:00:18.065Z,2.50
2017-04-24T00:01:16.716Z,2.40
2017-04-24T00:02:15.357Z,2.40
2017-04-24T00:03:13.928Z,2.40
2017-04-24T00:04:12.528Z,2.30
2017-04-24T00:05:11.107Z,2.30
2017-04-24T00:06:09.661Z,2.30
2017-04-24T00:07:08.186Z,2.20
2017-04-24T00:08:06.791Z,2.20
2017-04-24T00:09:06.151Z,2.20
2017-04-24T00:10:04.783Z,2.20
2017-04-24T00:11:03.383Z,2.20
2017-04-24T00:12:02.064Z,2.20
2017-04-24T00:13:00.980Z,2.30
2017-04-24T00:13:59.538Z,2.30
2017-04-24T00:14:58.055Z,2.30
2017-04-24T00:15:56.629Z,2.30
2017-04-24T00:16:55.225Z,2.30
2017-04-24T00:17:54.665Z,2.30
2017-04-24T00:18:53.227Z,2.30
2017-04-24T00:19:51.833Z,2.30
2017-04-24T00:20:50.778Z,2.50
2017-04-24T00:21:49.334Z,2.40
2017-04-24T00:22:47.909Z,2.50
2017-04-24T00:23:46.436Z,2.40
2017-04-24T00:24:45.016Z,2.40
2017-04-24T00:25:43.543Z,2.30
2017-04-24T00:26:42.072Z,2.30
2017-04-24T00:27:40.631Z,2.20
2017-04-24T00:28:39.237Z,2.20
2017-04-24T00:29:37.768Z,2.30
2017-04-24T00:30:36.347Z,2.30
2017-04-24T00:31:34.856Z,2.20
2017-04-24T00:32:33.939Z,2.10
2017-04-24T00:33:32.900Z,2.00
2017-04-24T00:34:31.899Z,1.90
2017-04-24T00:35:30.388Z,1.90
2017-04-24T00:36:28.886Z,1.90
2017-04-24T00:37:27.383Z,1.90
2017-04-24T00:38:26.303Z,1.80
2017-04-24T00:39:24.872Z,1.80
2017-04-24T00:40:23.368Z,1.80
2017-04-24T00:41:22.330Z,1.80
2017-04-24T00:42:20.855Z,1.80
2017-04-24T00:43:19.393Z,1.90
2017-04-24T00:44:17.946Z,1.80
2017-04-24T00:45:16.475Z,1.80
2017-04-24T00:46:14.955Z,2.00
2017-04-24T00:47:13.841Z,2.10
2017-04-24T00:48:12.780Z,2.10
2017-04-24T00:49:11.325Z,2.10
2017-04-24T00:50:09.885Z,2.00
2017-04-24T00:51:08.622Z,1.90
2017-04-24T00:52:07.137Z,1.80
2017-04-24T00:53:05.748Z,1.80
2017-04-24T00:54:04.286Z,1.70
2017-04-24T00:55:02.781Z,1.70
2017-04-24T00:56:01.300Z,1.60
2017-04-24T00:56:59.864Z,1.50
2017-04-24T00:57:58.434Z,1.60
2017-04-24T00:58:56.963Z,1.60
2017-04-24T00:59:55.537Z,1.70
2017-04-24T01:00:54.049Z,1.80
2017-04-24T01:01:52.626Z,1.80
2017-04-24T01:02:51.160Z,1.90
2017-04-24T01:03:49.698Z,1.90
2017-04-24T01:04:48.253Z,1.80
2017-04-24T01:05:47.206Z,1.70
2017-04-24T01:06:45.756Z,1.70
2017-04-24T01:07:44.317Z,1.60
2017-04-24T01:08:42.838Z,1.60
2017-04-24T01:09:41.800Z,1.50
2017-04-24T01:10:40.325Z,1.50
2017-04-24T01:11:38.843Z,1.40
2017-04-24T01:12:37.452Z,1.40
2017-04-24T01:13:35.947Z,1.40
2017-04-24T01:14:34.908Z,1.40
2017-04-24T01:15:33.881Z,1.40
2017-04-24T01:16:32.395Z,1.40
2017-04-24T01:17:30.945Z,1.30
2017-04-24T01:18:29.493Z,1.30
2017-04-24T01:19:28.087Z,1.30
2017-04-24T01:20:26.715Z,1.20
2017-04-24T01:21:25.233Z,1.30
2017-04-24T01:22:23.816Z,1.20
2017-04-24T01:23:22.372Z,1.30
2017-04-24T01:24:20.935Z,1.20
2017-04-24T01:25:19.546Z,1.20
2017-04-24T01:26:18.452Z,1.20
2017-04-24T01:27:16.978Z,1.20
2017-04-24T01:28:15.904Z,1.20
2017-04-24T01:29:14.437Z,1.20
2017-04-24T01:30:13.004Z,1.20
2017-04-24T01:31:11.510Z,1.20
2017-04-24T01:32:10.105Z,1.20
2017-04-24T01:33:09.134Z,1.10
2017-04-24T01:34:07.718Z,1.10
2017-04-24T01:35:06.322Z,1.20
2017-04-24T01:36:04.866Z,1.10
2017-04-24T01:37:03.402Z,1.10
2017-04-24T01:38:01.927Z,1.10
2017-04-24T01:39:00.593Z,1.10
2017-04-24T01:39:59.143Z,1.30
2017-04-24T01:40:57.676Z,1.40
2017-04-24T01:41:56.249Z,1.50
2017-04-24T01:42:54.741Z,1.50
2017-04-24T01:43:53.270Z,1.40
2017-04-24T01:44:51.882Z,1.30
2017-04-24T01:45:50.479Z,1.30
2017-04-24T01:46:48.977Z,1.30
2017-04-24T01:47:47.484Z,1.20
2017-04-24T01:48:46.016Z,1.20
2017-04-24T01:49:44.553Z,1.20
2017-04-24T01:50:43.135Z,1.10
2017-04-24T01:51:41.691Z,1.10
2017-04-24T01:52:40.247Z,1.00
2017-04-24T01:53:39.146Z,0.90
2017-04-24T01:54:38.065Z,0.90
2017-04-24T01:55:36.582Z,0.90
2017-04-24T01:56:35.071Z,0.80
2017-04-24T01:57:33.595Z,0.80
2017-04-24T01:58:32.116Z,0.80
2017-04-24T01:59:30.697Z,0.80
2017-04-24T02:00:29.624Z,0.80
2017-04-24T02:01:28.118Z,0.80
2017-04-24T02:02:26.621Z,0.80
2017-04-24T02:03:25.125Z,0.90
2017-04-24T02:04:23.640Z,1.00
2017-04-24T02:05:22.227Z,1.00
2017-04-24T02:06:20.732Z,1.00
2017-04-24T02:07:19.301Z,1.00
2017-04-24T02:08:17.818Z,0.90
2017-04-24T02:09:16.375Z,0.90
2017-04-24T02:10:14.911Z,0.90
2017-04-24T02:11:13.845Z,0.80
2017-04-24T02:12:12.378Z,0.80
2017-04-24T02:13:10.914Z,0.80
2017-04-24T02:14:09.853Z,0.80
2017-04-24T02:15:08.391Z,0.70
2017-04-24T02:16:06.965Z,0.70
2017-04-24T02:17:05.517Z,0.70
2017-04-24T02:18:04.463Z,0.70
2017-04-24T02:19:03.381Z,0.70
2017-04-24T02:20:01.948Z,0.70
2017-04-24T02:21:00.594Z,0.70
2017-04-24T02:21:59.113Z,0.80
2017-04-24T02:22:57.672Z,0.90
2017-04-24T02:23:56.212Z,0.90
2017-04-24T02:24:54.705Z,0.90
2017-04-24T02:25:53.215Z,0.90
2017-04-24T02:26:51.720Z,0.80
2017-04-24T02:27:50.389Z,0.80
2017-04-24T02:28:49.267Z,0.70
2017-04-24T02:29:47.884Z,0.70
2017-04-24T02:30:46.416Z,0.60
2017-04-24T02:31:45.082Z,0.60
2017-04-24T02:32:43.625Z,0.60
2017-04-24T02:33:42.140Z,0.50
2017-04-24T02:34:41.147Z,0.50
2017-04-24T02:35:40.108Z,0.40
2017-04-24T02:36:38.663Z,0.40
2017-04-24T02:37:37.255Z,0.40
2017-04-24T02:38:35.764Z,0.40
2017-04-24T02:39:34.301Z,0.30
2017-04-24T02:40:32.816Z,0.40
2017-04-24T02:41:31.411Z,0.30
2017-04-24T02:42:29.976Z,0.30
2017-04-24T02:43:28.898Z,0.40
2017-04-24T02:44:27.711Z,0.40
2017-04-24T02:45:26.295Z,0.40
2017-04-24T02:46:24.813Z,0.40
2017-04-24T02:47:23.746Z,0.40
2017-04-24T02:48:22.671Z,0.40
2017-04-24T02:49:21.260Z,0.40
2017-04-24T02:50:20.031Z,0.40
2017-04-24T02:51:18.805Z,0.40
2017-04-24T02:52:17.313Z,0.50
2017-04-24T02:53:15.850Z,0.50
2017-04-24T02:54:14.328Z,0.40
2017-04-24T02:55:12.864Z,0.40
2017-04-24T02:56:11.677Z,0.30
2017-04-24T02:57:10.208Z,0.30
2017-04-24T02:58:08.759Z,0.20
2017-04-24T02:59:07.293Z,0.20
2017-04-24T03:00:06.281Z,0.20
2017-04-24T03:01:04.801Z,0.20
2017-04-24T03:02:04.071Z,0.20
2017-04-24T03:03:02.710Z,0.20
2017-04-24T03:04:01.259Z,0.20
2017-04-24T03:04:59.784Z,0.20
2017-04-24T03:05:58.316Z,0.20
2017-04-24T03:06:57.242Z,0.20
2017-04-24T03:07:56.097Z,0.20
2017-04-24T03:08:55.077Z,0.20
2017-04-24T03:09:54.004Z,0.20
2017-04-24T03:10:52.559Z,0.20
2017-04-24T03:11:51.096Z,0.20
2017-04-24T03:12:49.604Z,0.10
2017-04-24T03:13:48.394Z,0.10
2017-04-24T03:14:46.923Z,0.10
2017-04-24T03:15:45.846Z,0.10
2017-04-24T03:16:44.468Z,0.10
2017-04-24T03:17:42.997Z,0.10
2017-04-24T03:18:41.516Z,0.20
2017-04-24T03:19:40.372Z,0.10
2017-04-24T03:20:38.917Z,0.20
2017-04-24T03:21:37.429Z,0.20
2017-04-24T03:22:35.961Z,0.20
2017-04-24T03:23:34.486Z,0.20
2017-04-24T03:24:33.049Z,0.20
2017-04-24T03:25:31.925Z,0.20
2017-04-24T03:26:30.449Z,0.20
2017-04-24T03:27:28.996Z,0.10
2017-04-24T03:28:27.505Z,0.10
2017-04-24T03:29:26.025Z,0.10
2017-04-24T03:30:24.579Z,0.10
2017-04-24T03:31:23.386Z,0.00
2017-04-24T03:32:21.893Z,0.00
2017-04-24T03:33:20.465Z,0.00
2017-04-24T03:34:18.965Z,0.00
2017-04-24T03:35:17.513Z,0.10
2017-04-24T03:36:16.085Z,0.00
2017-04-24T03:37:14.986Z,0.00
2017-04-24T03:38:14.006Z,-0.10
2017-04-24T03:39:12.556Z,0.00
2017-04-24T03:40:11.106Z,0.00
2017-04-24T03:41:09.642Z,0.00
2017-04-24T03:42:08.473Z,0.00
2017-04-24T03:43:07.238Z,0.00
2017-04-24T03:44:05.781Z,0.00
2017-04-24T03:45:04.345Z,0.00
2017-04-24T03:46:03.339Z,0.00
2017-04-24T03:47:02.129Z,0.00
2017-04-24T03:48:01.047Z,0.00
2017-04-24T03:48:59.641Z,0.00
2017-04-24T03:49:58.558Z,0.00
2017-04-24T03:50:57.500Z,0.00
2017-04-24T03:51:56.031Z,0.00
2017-04-24T03:52:54.584Z,0.00
2017-04-24T03:53:53.114Z,-0.10
2017-04-24T03:54:51.939Z,-0.10
2017-04-24T03:55:50.542Z,-0.10
2017-04-24T03:56:49.084Z,-0.10
2017-04-24T03:57:47.658Z,-0.10
2017-04-24T03:58:46.206Z,-0.20
2017-04-24T03:59:44.731Z,-0.20
2017-04-24T04:00:43.563Z,-0.20
2017-04-24T04:01:42.196Z,-0.20
2017-04-24T04:02:40.726Z,-0.20
2017-04-24T04:03:39.337Z,-0.20
2017-04-24T04:04:37.972Z,-0.30
2017-04-24T04:05:36.502Z,-0.30
2017-04-24T04:06:35.429Z,-0.30
2017-04-24T04:07:34.367Z,-0.30
2017-04-24T04:08:32.972Z,-0.30
2017-04-24T04:09:31.893Z,-0.40
2017-04-24T04:10:30.413Z,-0.40
2017-04-24T04:11:29.352Z,-0.40
2017-04-24T04:12:28.065Z,-0.40
2017-04-24T04:13:26.600Z,-0.40
2017-04-24T04:14:25.111Z,-0.40
2017-04-24T04:15:24.046Z,-0.30
2017-04-24T04:16:22.961Z,-0.30
2017-04-24T04:17:21.516Z,-0.30
2017-04-24T04:18:20.766Z,-0.30
2017-04-24T04:19:19.860Z,-0.30
2017-04-24T04:20:18.480Z,-0.30
2017-04-24T04:21:17.064Z,-0.30
2017-04-24T04:22:15.670Z,-0.40
2017-04-24T04:23:14.216Z,-0.40
2017-04-24T04:24:12.898Z,-0.40
2017-04-24T04:25:11.468Z,-0.30
2017-04-24T04:26:10.137Z,-0.40
2017-04-24T04:27:08.677Z,-0.30
2017-04-24T04:28:07.258Z,-0.30
2017-04-24T04:29:05.827Z,-0.40
2017-04-24T04:30:04.745Z,-0.40
2017-04-24T04:31:03.274Z,-0.40
2017-04-24T04:32:01.829Z,-0.40
2017-04-24T04:33:00.805Z,-0.40
2017-04-24T04:33:59.350Z,-0.30
2017-04-24T04:34:57.910Z,-0.30
2017-04-24T04:35:56.824Z,-0.40
2017-04-24T04:36:55.409Z,-0.30
2017-04-24T04:37:54.350Z,-0.30
2017-04-24T04:38:52.878Z,-0.30
2017-04-24T04:39:51.461Z,-0.20
2017-04-24T04:40:50.016Z,-0.20
2017-04-24T04:41:48.830Z,-0.30
2017-04-24T04:42:47.395Z,-0.30
2017-04-24T04:43:46.344Z,-0.30
2017-04-24T04:44:44.894Z,-0.30
2017-04-24T04:45:43.486Z,-0.30
2017-04-24T04:46:42.020Z,-0.30
2017-04-24T04:47:40.869Z,-0.30
2017-04-24T04:48:39.545Z,-0.30
2017-04-24T04:49:38.106Z,-0.30
2017-04-24T04:50:36.645Z,-0.30
2017-04-24T04:51:35.714Z,-0.30
2017-04-24T04:52:34.243Z,-0.30
2017-04-24T04:53:33.114Z,-0.30
2017-04-24T04:54:31.693Z,-0.30
2017-04-24T04:55:30.349Z,-0.20
2017-04-24T04:56:28.918Z,-0.20
2017-04-24T04:57:27.468Z,-0.10
2017-04-24T04:58:26.462Z,-0.10
2017-04-24T04:59:25.031Z,-0.10
2017-04-24T05:00:23.612Z,-0.10
2017-04-24T05:01:22.192Z,-0.10
2017-04-24T05:02:20.959Z,-0.10
2017-04-24T05:03:19.515Z,-0.10
2017-04-24T05:04:18.315Z,-0.10
2017-04-24T05:05:17.265Z,-0.10
2017-04-24T05:06:15.930Z,-0.10
2017-04-24T05:07:14.441Z,-0.10
2017-04-24T05:08:12.937Z,0.00
2017-04-24T05:09:11.539Z,0.00
2017-04-24T05:10:10.278Z,0.00
2017-04-24T05:11:08.771Z,0.00
2017-04-24T05:12:07.315Z,0.00
2017-04-24T05:13:05.844Z,0.10
2017-04-24T05:14:04.404Z,0.10
2017-04-24T05:15:02.952Z,0.10
2017-04-24T05:16:01.730Z,0.20
2017-04-24T05:17:00.285Z,0.20
2017-04-24T05:17:58.800Z,0.20
2017-04-24T05:18:57.317Z,0.30
2017-04-24T05:19:55.831Z,0.30
2017-04-24T05:20:54.386Z,0.40
2017-04-24T05:21:53.224Z,0.40
2017-04-24T05:22:51.757Z,0.40
2017-04-24T05:23:50.280Z,0.50
2017-04-24T05:24:48.801Z,0.50
2017-04-24T05:25:47.329Z,0.60
2017-04-24T05:26:45.983Z,0.60
2017-04-24T05:27:45.264Z,0.60
2017-04-24T05:28:43.766Z,0.60
2017-04-24T05:29:42.262Z,0.60
2017-04-24T05:30:40.808Z,0.70
2017-04-24T05:31:39.448Z,0.70
2017-04-24T05:32:38.074Z,0.80
2017-04-24T05:33:36.785Z,0.80
2017-04-24T05:34:35.696Z,0.90
2017-04-24T05:35:34.250Z,0.90
2017-04-24T05:36:32.753Z,1.00
2017-04-24T05:37:31.269Z,1.00
2017-04-24T05:38:30.192Z,1.10
2017-04-24T05:39:29.354Z,1.10
2017-04-24T05:40:27.963Z,1.10
2017-04-24T05:41:26.554Z,1.20
2017-04-24T05:42:25.053Z,1.20
2017-04-24T05:43:23.621Z,1.30
2017-04-24T05:44:22.220Z,1.30
2017-04-24T05:45:21.132Z,1.30
2017-04-24T05:46:19.664Z,1.40
2017-04-24T05:47:18.183Z,1.50
2017-04-24T05:48:16.676Z,1.60
2017-04-24T05:49:15.172Z,1.60
2017-04-24T05:50:13.772Z,1.70
2017-04-24T05:51:12.584Z,1.80
2017-04-24T05:52:11.111Z,1.90
2017-04-24T05:53:09.612Z,2.00
2017-04-24T05:54:08.509Z,2.20
2017-04-24T05:55:07.006Z,2.20
2017-04-24T05:56:05.553Z,2.30
2017-04-24T05:57:04.377Z,2.40
2017-04-24T05:58:02.942Z,2.50
2017-04-24T05:59:01.490Z,2.50
2017-04-24T06:00:00.422Z,2.70
2017-04-24T06:00:59.438Z,2.70
2017-04-24T06:01:57.988Z,2.80
2017-04-24T06:02:56.785Z,2.90
2017-04-24T06:03:55.326Z,3.00
2017-04-24T06:04:54.559Z,3.10
2017-04-24T06:05:53.129Z,3.20
2017-04-24T06:06:51.662Z,3.30
2017-04-24T06:07:50.173Z,3.30
2017-04-24T06:08:48.980Z,3.30
2017-04-24T06:09:47.637Z,3.40
2017-04-24T06:10:46.187Z,3.40
2017-04-24T06:11:44.748Z,3.50
2017-04-24T06:12:43.709Z,3.60
2017-04-24T06:13:42.222Z,3.60
2017-04-24T06:14:41.008Z,3.60
2017-04-24T06:15:40.003Z,3.70
2017-04-24T06:16:38.968Z,3.80
2017-04-24T06:17:37.527Z,3.80
2017-04-24T06:18:36.646Z,3.80
2017-04-24T06:19:35.199Z,3.90
2017-04-24T06:20:34.285Z,4.00
2017-04-24T06:21:32.770Z,4.10
2017-04-24T06:22:31.314Z,4.20
2017-04-24T06:23:29.829Z,4.20
2017-04-24T06:24:28.797Z,4.40
2017-04-24T06:25:27.310Z,4.40
2017-04-24T06:26:25.994Z,4.40
2017-04-24T06:27:24.520Z,4.40
2017-04-24T06:28:23.440Z,4.50
2017-04-24T06:29:22.042Z,4.50
2017-04-24T06:30:20.626Z,4.50
2017-04-24T06:31:19.545Z,4.60
2017-04-24T06:32:18.092Z,4.60
2017-04-24T06:33:16.755Z,4.60
2017-04-24T06:34:15.361Z,4.70
2017-04-24T06:35:13.910Z,4.80
2017-04-24T06:36:12.511Z,4.90
2017-04-24T06:37:11.024Z,4.90
2017-04-24T06:38:10.464Z,5.00
2017-04-24T06:39:08.990Z,5.00
2017-04-24T06:40:07.514Z,5.00
2017-04-24T06:41:06.084Z,4.90
2017-04-24T06:42:04.623Z,5.00
2017-04-24T06:43:03.156Z,5.10
2017-04-24T06:44:01.776Z,5.20
2017-04-24T06:45:00.509Z,5.20
2017-04-24T06:45:59.049Z,5.10
2017-04-24T06:46:57.634Z,5.20
2017-04-24T06:47:56.532Z,5.50
2017-04-24T06:48:55.481Z,5.40
2017-04-24T06:49:54.686Z,5.50
2017-04-24T06:50:53.640Z,5.50
2017-04-24T06:51:52.655Z,5.60
2017-04-24T06:52:51.182Z,5.60
2017-04-24T06:53:49.744Z,5.60
2017-04-24T06:54:48.304Z,5.70
2017-04-24T06:55:47.169Z,5.80
2017-04-24T06:56:45.689Z,5.90
2017-04-24T06:57:44.225Z,6.00
2017-04-24T06:58:43.156Z,6.00
2017-04-24T06:59:42.415Z,6.10
2017-04-24T07:00:41.155Z,6.00
2017-04-24T07:01:40.027Z,6.00
2017-04-24T07:02:38.625Z,5.90
2017-04-24T07:03:37.314Z,5.80
2017-04-24T07:04:36.283Z,5.70
2017-04-24T07:05:46.682Z,5.70
2017-04-24T07:06:45.880Z,5.70
2017-04-24T07:07:52.699Z,5.70
2017-04-24T07:09:11.794Z,5.60
2017-04-24T07:10:10.331Z,5.60
2017-04-24T07:11:08.862Z,5.60
2017-04-24T07:12:07.957Z,5.80
2017-04-24T07:13:06.525Z,5.80
2017-04-24T07:14:05.102Z,5.90
2017-04-24T07:15:04.068Z,6.10
2017-04-24T07:16:03.104Z,6.20
2017-04-24T07:17:01.786Z,6.20
2017-04-24T07:18:00.541Z,6.30
2017-04-24T07:18:59.068Z,6.30
2017-04-24T07:19:59.577Z,6.40
2017-04-24T07:20:58.145Z,6.50
2017-04-24T07:21:56.731Z,6.60
2017-04-24T07:22:55.261Z,6.60
2017-04-24T07:23:54.433Z,6.70
2017-04-24T07:24:52.959Z,6.80
2017-04-24T07:25:51.736Z,6.80
2017-04-24T07:26:50.632Z,6.80
2017-04-24T07:27:49.175Z,6.80
2017-04-24T07:28:47.660Z,6.80
2017-04-24T07:29:46.456Z,6.90
2017-04-24T07:30:44.971Z,7.00
2017-04-24T07:31:43.509Z,7.00
2017-04-24T07:32:42.110Z,7.00
2017-04-24T07:33:40.680Z,7.00
2017-04-24T07:34:39.417Z,7.00
2017-04-24T07:35:38.462Z,7.10
2017-04-24T07:36:36.996Z,7.20
2017-04-24T07:37:35.523Z,7.20
2017-04-24T07:38:34.055Z,7.20
2017-04-24T07:39:32.569Z,7.20
2017-04-24T07:40:31.169Z,7.30
2017-04-24T07:41:29.945Z,7.30
2017-04-24T07:42:28.894Z,7.30
2017-04-24T07:43:27.427Z,7.30
2017-04-24T07:44:25.982Z,7.30
2017-04-24T07:45:24.523Z,7.30
2017-04-24T07:46:23.019Z,7.40
2017-04-24T07:47:21.860Z,7.40
2017-04-24T07:48:20.390Z,7.50
2017-04-24T07:49:19.077Z,7.50
2017-04-24T07:50:17.597Z,7.50
2017-04-24T07:51:16.601Z,7.60
2017-04-24T07:52:15.172Z,7.60
2017-04-24T07:53:14.156Z,7.70
2017-04-24T07:54:12.690Z,7.80
2017-04-24T07:55:11.228Z,7.80
2017-04-24T07:56:09.733Z,7.90
2017-04-24T07:57:08.401Z,7.90
2017-04-24T07:58:07.487Z,7.90
2017-04-24T07:59:06.357Z,7.90
2017-04-24T08:00:04.908Z,7.90
2017-04-24T08:01:03.446Z,7.90
2017-04-24T08:02:01.981Z,8.00
2017-04-24T08:03:00.879Z,8.10
2017-04-24T08:03:59.413Z,8.10
2017-04-24T08:04:58.379Z,8.10
2017-04-24T08:05:56.908Z,8.10
2017-04-24T08:06:55.481Z,8.10
2017-04-24T08:07:54.447Z,8.20
2017-04-24T08:08:52.956Z,8.20
2017-04-24T08:09:51.489Z,8.30
2017-04-24T08:10:50.302Z,8.40
2017-04-24T08:11:48.804Z,8.50
2017-04-24T08:12:47.311Z,8.50
2017-04-24T08:13:45.822Z,8.60
2017-04-24T08:14:44.332Z,8.70
2017-04-24T08:15:42.873Z,8.70
2017-04-24T08:16:41.711Z,8.80
2017-04-24T08:17:40.236Z,8.90
2017-04-24T08:18:39.162Z,8.80
2017-04-24T08:19:37.687Z,8.80
2017-04-24T08:20:36.211Z,8.80
2017-04-24T08:21:34.736Z,8.80
2017-04-24T08:22:33.516Z,8.70
2017-04-24T08:23:32.028Z,8.70
2017-04-24T08:24:30.511Z,8.70
2017-04-24T08:25:29.028Z,8.80
2017-04-24T08:26:27.584Z,8.90
2017-04-24T08:27:26.469Z,9.00
2017-04-24T08:28:25.252Z,9.10
2017-04-24T08:29:23.772Z,9.10
2017-04-24T08:30:22.770Z,9.20
2017-04-24T08:31:21.760Z,9.10
2017-04-24T08:32:22.524Z,9.20
2017-04-24T08:33:21.556Z,9.20
2017-04-24T08:34:20.789Z,9.30
2017-04-24T08:35:19.338Z,9.30
2017-04-24T08:36:18.254Z,9.40
2017-04-24T08:37:16.794Z,9.40
2017-04-24T08:38:15.348Z,9.40
2017-04-24T08:39:13.903Z,9.40
2017-04-24T08:40:12.675Z,9.50
2017-04-24T08:41:11.694Z,9.60
2017-04-24T08:42:10.593Z,9.70
2017-04-24T08:43:09.192Z,9.80
2017-04-24T08:44:07.714Z,9.80
2017-04-24T08:45:06.284Z,9.80
2017-04-24T08:46:04.810Z,9.80
2017-04-24T08:47:03.303Z,9.90
2017-04-24T08:48:01.785Z,9.90
2017-04-24T08:49:00.686Z,9.90
2017-04-24T08:49:59.189Z,9.90
2017-04-24T08:50:57.989Z,9.80
2017-04-24T08:51:56.500Z,9.80
2017-04-24T08:52:54.992Z,9.80
2017-04-24T08:53:53.501Z,9.90
2017-04-24T08:54:52.036Z,9.90
2017-04-24T08:55:50.563Z,10.00
2017-04-24T08:56:49.081Z,10.00
2017-04-24T08:57:47.610Z,10.10
2017-04-24T08:58:46.189Z,10.10
2017-04-24T08:59:44.681Z,10.10
2017-04-24T09:00:43.190Z,10.00
2017-04-24T09:01:44.070Z,10.00
2017-04-24T09:02:42.580Z,10.00
2017-04-24T09:03:41.157Z,10.00
2017-04-24T09:04:39.753Z,9.90
2017-04-24T09:05:38.338Z,9.90
2017-04-24T09:06:36.869Z,10.00
2017-04-24T09:07:35.401Z,10.00
2017-04-24T09:08:33.920Z,10.00
2017-04-24T09:09:32.452Z,10.10
2017-04-24T09:10:31.415Z,10.20
2017-04-24T09:11:29.939Z,10.20
2017-04-24T09:12:28.847Z,10.40
2017-04-24T09:13:27.657Z,10.40
2017-04-24T09:14:26.296Z,10.40
2017-04-24T09:15:24.919Z,10.40
2017-04-24T09:16:23.406Z,10.30
2017-04-24T09:17:21.925Z,10.40
2017-04-24T09:18:20.460Z,10.30
2017-04-24T09:19:19.473Z,10.40
2017-04-24T09:20:18.060Z,10.40
2017-04-24T09:21:16.585Z,10.40
2017-04-24T09:22:15.258Z,10.40
2017-04-24T09:23:13.941Z,10.40
2017-04-24T09:24:12.780Z,10.40
2017-04-24T09:25:11.308Z,10.40
2017-04-24T09:26:10.625Z,10.40
2017-04-24T09:27:09.235Z,10.60
2017-04-24T09:28:07.797Z,10.60
2017-04-24T09:29:06.376Z,10.70
2017-04-24T09:30:05.345Z,10.80
2017-04-24T09:31:04.465Z,10.80
2017-04-24T09:32:02.995Z,10.80
2017-04-24T09:33:01.536Z,10.80
2017-04-24T09:34:00.091Z,10.80
2017-04-24T09:34:59.741Z,10.90
2017-04-24T09:35:58.597Z,10.90
2017-04-24T09:36:57.150Z,10.90
2017-04-24T09:37:58.001Z,10.80
2017-04-24T09:38:58.913Z,10.80
2017-04-24T09:39:57.459Z,10.80
2017-04-24T09:40:56.089Z,10.90
2017-04-24T09:41:54.668Z,11.00
2017-04-24T09:42:53.601Z,11.00
2017-04-24T09:43:52.341Z,11.10
2017-04-24T09:44:50.954Z,11.10
2017-04-24T09:45:49.732Z,11.10
2017-04-24T09:46:48.608Z,11.20
2017-04-24T09:47:47.118Z,11.20
2017-04-24T09:48:45.664Z,11.30
2017-04-24T09:49:44.521Z,11.20
2017-04-24T09:50:43.288Z,11.30
2017-04-24T09:51:41.829Z,11.40
2017-04-24T09:52:40.469Z,11.40
2017-04-24T09:53:39.392Z,11.60
2017-04-24T09:54:38.430Z,11.60
2017-04-24T09:55:37.005Z,11.60
2017-04-24T09:56:35.621Z,11.60
2017-04-24T09:57:34.555Z,11.30
2017-04-24T09:58:33.084Z,11.30
2017-04-24T09:59:31.913Z,11.30
2017-04-24T10:00:30.428Z,11.20
2017-04-24T10:01:29.189Z,11.30
2017-04-24T10:02:28.117Z,11.50
2017-04-24T10:03:27.019Z,11.40
2017-04-24T10:04:25.565Z,11.40
2017-04-24T10:05:24.083Z,11.40
2017-04-24T10:06:22.613Z,11.50
2017-04-24T10:07:21.887Z,11.50
2017-04-24T10:08:20.764Z,11.60
2017-04-24T10:09:19.323Z,11.60
2017-04-24T10:10:17.997Z,11.70
2017-04-24T10:11:16.900Z,11.80
2017-04-24T10:12:15.433Z,11.80
2017-04-24T10:13:14.008Z,11.90
2017-04-24T10:14:12.512Z,11.90
2017-04-24T10:15:11.060Z,11.80
2017-04-24T10:16:09.560Z,11.90
2017-04-24T10:17:08.113Z,11.90
2017-04-24T10:18:06.891Z,11.80
2017-04-24T10:19:05.407Z,11.70
2017-04-24T10:20:04.007Z,11.80
2017-04-24T10:21:02.544Z,11.80
2017-04-24T10:22:01.028Z,11.80
2017-04-24T10:22:59.562Z,11.70
2017-04-24T10:23:58.110Z,11.60
2017-04-24T10:24:56.622Z,11.60
2017-04-24T10:25:55.276Z,11.60
2017-04-24T10:26:54.200Z,11.70
2017-04-24T10:27:52.757Z,11.60
2017-04-24T10:28:51.549Z,11.70
2017-04-24T10:29:50.497Z,11.60
2017-04-24T10:30:49.395Z,11.60
2017-04-24T10:31:47.925Z,11.70
2017-04-24T10:32:46.400Z,11.70
2017-04-24T10:33:46.620Z,11.80
2017-04-24T10:34:48.197Z,11.80
2017-04-24T10:35:48.900Z,11.70
2017-04-24T10:36:49.191Z,11.80
2017-04-24T10:37:51.802Z,11.80
2017-04-24T10:38:50.334Z,11.70
2017-04-24T10:39:49.117Z,11.70
2017-04-24T10:40:48.050Z,11.70
2017-04-24T10:41:46.559Z,11.70
2017-04-24T10:42:45.095Z,11.80
2017-04-24T10:43:43.620Z,11.90
2017-04-24T10:44:42.259Z,11.90
2017-04-24T10:45:41.186Z,11.70
2017-04-24T10:46:39.693Z,11.70
2017-04-24T10:47:38.192Z,11.70
2017-04-24T10:48:36.720Z,11.60
2017-04-24T10:49:35.634Z,11.60
2017-04-24T10:50:34.541Z,11.60
2017-04-24T10:51:33.144Z,11.60
2017-04-24T10:52:31.704Z,11.80
2017-04-24T10:53:30.234Z,11.80
2017-04-24T10:54:28.858Z,11.70
2017-04-24T10:55:27.397Z,11.70
2017-04-24T10:56:25.988Z,11.70
2017-04-24T10:57:24.584Z,11.70
2017-04-24T10:58:23.234Z,11.70
2017-04-24T10:59:21.772Z,11.70
2017-04-24T11:00:20.460Z,11.70
2017-04-24T11:01:19.045Z,11.80
2017-04-24T11:02:18.029Z,11.90
2017-04-24T11:03:17.254Z,12.00
2017-04-24T11:04:15.858Z,12.00
2017-04-24T11:05:14.489Z,12.10
2017-04-24T11:06:13.523Z,12.10
2017-04-24T11:07:12.037Z,12.10
2017-04-24T11:08:10.612Z,12.20
2017-04-24T11:09:09.107Z,12.30
2017-04-24T11:10:07.619Z,12.40
2017-04-24T11:11:06.686Z,12.40
2017-04-24T11:12:05.673Z,12.50
2017-04-24T11:13:04.219Z,12.50
2017-04-24T11:14:02.788Z,12.50
2017-04-24T11:15:01.796Z,12.60
2017-04-24T11:16:00.351Z,12.60
2017-04-24T11:16:59.239Z,12.40
2017-04-24T11:17:57.819Z,12.40
2017-04-24T11:18:56.618Z,12.30
2017-04-24T11:19:55.155Z,12.30
2017-04-24T11:20:53.661Z,12.40
2017-04-24T11:21:52.151Z,12.40
2017-04-24T11:22:50.676Z,12.50
2017-04-24T11:23:49.223Z,12.50
2017-04-24T11:24:47.801Z,12.60
2017-04-24T11:25:46.345Z,12.60
2017-04-24T11:26:44.837Z,12.60
2017-04-24T11:27:43.772Z,12.60
2017-04-24T11:28:42.306Z,12.60
2017-04-24T11:29:40.849Z,12.70
2017-04-24T11:30:39.371Z,12.80
2017-04-24T11:31:37.949Z,12.90
2017-04-24T11:32:36.520Z,12.90
2017-04-24T11:33:35.462Z,12.90
2017-04-24T11:34:34.392Z,12.80
2017-04-24T11:35:33.239Z,12.80
2017-04-24T11:36:32.179Z,12.90
2017-04-24T11:37:30.717Z,12.90
2017-04-24T11:38:29.225Z,12.90
2017-04-24T11:39:27.737Z,12.90
2017-04-24T11:40:26.508Z,13.00
2017-04-24T11:41:25.056Z,13.10
2017-04-24T11:42:23.587Z,13.20
2017-04-24T11:43:22.115Z,13.20
2017-04-24T11:44:20.655Z,13.20
2017-04-24T11:45:19.177Z,13.10
2017-04-24T11:46:17.718Z,13.10
2017-04-24T11:47:16.247Z,13.20
2017-04-24T11:48:14.840Z,13.20
2017-04-24T11:49:13.760Z,13.30
2017-04-24T11:50:12.327Z,13.30
2017-04-24T11:51:10.839Z,13.40
2017-04-24T11:52:09.636Z,13.40
2017-04-24T11:53:08.572Z,13.30
2017-04-24T11:54:07.116Z,13.30
2017-04-24T11:55:06.054Z,13.30
2017-04-24T11:56:04.714Z,13.30
2017-04-24T11:57:03.386Z,13.30
2017-04-24T11:58:02.032Z,13.40
2017-04-24T11:59:00.569Z,13.40
2017-04-24T11:59:59.088Z,13.50
2017-04-24T12:00:57.701Z,13.60
2017-04-24T12:01:56.270Z,13.60
2017-04-24T12:02:55.102Z,13.60
2017-04-24T12:03:53.673Z,13.40
2017-04-24T12:04:52.198Z,13.30
2017-04-24T12:05:51.194Z,13.40
2017-04-24T12:06:49.739Z,13.40
2017-04-24T12:07:48.296Z,13.50
2017-04-24T12:08:47.347Z,13.70
2017-04-24T12:09:45.934Z,13.70
2017-04-24T12:10:44.496Z,13.70
2017-04-24T12:11:43.055Z,13.70
2017-04-24T12:12:42.092Z,13.60
2017-04-24T12:13:41.313Z,13.60
2017-04-24T12:14:39.892Z,13.60
2017-04-24T12:15:38.493Z,13.60
2017-04-24T12:16:37.047Z,13.70
2017-04-24T12:17:35.672Z,13.80
2017-04-24T12:18:34.832Z,13.90
2017-04-24T12:19:33.839Z,13.80
2017-04-24T12:20:32.865Z,13.80
2017-04-24T12:21:31.879Z,13.80
2017-04-24T12:22:30.447Z,13.80
2017-04-24T12:23:28.944Z,13.70
2017-04-24T12:24:28.232Z,13.70
2017-04-24T12:25:26.788Z,13.70
2017-04-24T12:26:25.401Z,13.80
2017-04-24T12:27:24.335Z,13.90
2017-04-24T12:28:22.912Z,13.90
2017-04-24T12:29:21.920Z,13.90
2017-04-24T12:30:20.506Z,13.90
2017-04-24T12:31:19.102Z,14.00
2017-04-24T12:32:21.858Z,14.00
2017-04-24T12:33:20.528Z,14.10
2017-04-24T12:34:19.128Z,14.20
2017-04-24T12:35:18.029Z,14.30
2017-04-24T12:36:16.644Z,14.40
2017-04-24T12:37:15.297Z,14.30
2017-04-24T12:38:13.835Z,14.30
2017-04-24T12:39:12.404Z,14.30
2017-04-24T12:40:11.049Z,14.40
2017-04-24T12:41:09.895Z,14.50
2017-04-24T12:42:08.838Z,14.60
2017-04-24T12:43:07.437Z,14.60
2017-04-24T12:44:06.074Z,14.50
2017-04-24T12:45:04.757Z,14.30
2017-04-24T12:46:03.319Z,14.40
2017-04-24T12:47:02.479Z,14.40
2017-04-24T12:48:01.026Z,14.40
2017-04-24T12:48:59.635Z,14.40
2017-04-24T12:49:58.204Z,14.40
2017-04-24T12:50:57.089Z,14.50